Time;durP1;ratioP1;P1;durP2;ratioP2;P2;SDS_P1;SDS_P2;PMS_P1;PMS_P2;Temp;Humidity;BMP_temperature;BMP_pressure;BME280_temperature;BME280_humidity;BME280_pressure;Samples;Min_cycle;Max_cycle;Signal;HPM_P1;HPM_P2
2023/01/31 00:00:18;;;;;;;7.73;6.93;;;;;;;3.32;100.00;97678.44;5110935;28;20215;-60
2023/01/31 00:02:45;;;;;;;9.43;7.57;;;;;;;3.22;100.00;97678.94;5110382;28;20229;-60
2023/01/31 00:05:11;;;;;;;8.73;7.57;;;;;;;3.16;100.00;97674.00;5110466;28;20212;-62
2023/01/31 00:07:39;;;;;;;8.77;7.87;;;;;;;3.19;100.00;97660.81;5108443;28;20201;-60
2023/01/31 00:10:06;;;;;;;11.47;8.47;;;;;;;3.24;100.00;97662.25;5109299;28;20217;-60
2023/01/31 00:12:33;;;;;;;8.90;7.73;;;;;;;3.23;100.00;97663.16;5108386;28;20216;-60
2023/01/31 00:14:59;;;;;;;9.03;7.80;;;;;;;3.29;100.00;97656.81;5114094;28;20522;-60
2023/01/31 00:17:26;;;;;;;9.40;8.10;;;;;;;3.26;100.00;97662.19;5114520;28;20200;-61
2023/01/31 00:19:52;;;;;;;9.23;8.17;;;;;;;3.27;100.00;97656.88;5114404;28;20223;-61
2023/01/31 00:22:19;;;;;;;8.83;7.93;;;;;;;3.16;100.00;97658.31;5114569;28;20209;-60
2023/01/31 00:24:47;;;;;;;8.97;8.03;;;;;;;3.25;100.00;97653.50;5113658;28;20839;-60
2023/01/31 00:27:13;;;;;;;9.53;8.33;;;;;;;3.28;100.00;97655.13;5114574;28;20209;-61
2023/01/31 00:29:40;;;;;;;8.87;7.97;;;;;;;3.30;100.00;97653.25;5114575;28;20221;-61
2023/01/31 00:32:06;;;;;;;9.63;7.87;;;;;;;3.36;100.00;97658.22;5113720;28;20197;-60
2023/01/31 00:34:32;;;;;;;9.63;8.63;;;;;;;3.38;100.00;97651.13;5114141;28;20660;-61
2023/01/31 00:36:59;;;;;;;11.27;9.70;;;;;;;3.42;100.00;97650.91;5113516;28;20672;-61
2023/01/31 00:39:25;;;;;;;11.83;9.80;;;;;;;3.45;100.00;97645.53;5114160;28;20201;-61
2023/01/31 00:41:53;;;;;;;11.47;9.83;;;;;;;3.40;100.00;97644.91;5114327;28;20220;-61
2023/01/31 00:44:20;;;;;;;11.50;9.27;;;;;;;3.36;100.00;97639.91;5113907;28;20198;-61
2023/01/31 00:46:46;;;;;;;9.77;8.60;;;;;;;3.35;100.00;97649.53;5114318;28;20198;-60
2023/01/31 00:49:13;;;;;;;9.50;8.50;;;;;;;3.41;100.00;97648.38;5113970;28;20228;-61
2023/01/31 00:51:39;;;;;;;9.47;8.47;;;;;;;3.38;100.00;97638.91;5113964;28;20211;-61
2023/01/31 00:54:05;;;;;;;9.47;8.47;;;;;;;3.39;100.00;97642.38;5113987;28;20212;-61
2023/01/31 00:56:32;;;;;;;9.50;8.50;;;;;;;3.38;100.00;97640.69;5114175;28;20205;-62
2023/01/31 00:59:00;;;;;;;10.50;8.13;;;;;;;3.34;100.00;97634.75;5114186;28;20201;-61
2023/01/31 01:01:28;;;;;;;12.53;9.73;;;;;;;3.35;100.00;97635.59;5113804;28;20324;-60
2023/01/31 01:03:55;;;;;;;10.67;9.33;;;;;;;3.37;100.00;97628.53;5113952;28;20218;-61
2023/01/31 01:06:22;;;;;;;9.57;8.57;;;;;;;3.34;100.00;97624.28;5114041;28;20216;-62
2023/01/31 01:08:49;;;;;;;10.97;9.50;;;;;;;3.31;100.00;97623.59;5113444;28;20213;-60
2023/01/31 01:11:17;;;;;;;10.07;9.07;;;;;;;3.27;100.00;97619.44;5113484;28;20550;-60
2023/01/31 01:13:44;;;;;;;10.97;9.00;;;;;;;3.22;100.00;97614.47;5113361;28;20238;-62
2023/01/31 01:16:13;;;;;;;9.63;8.63;;;;;;;3.22;100.00;97613.59;5113670;28;20208;-61
2023/01/31 01:18:40;;;;;;;9.67;8.67;;;;;;;3.14;100.00;97613.13;5113712;28;20212;-61
2023/01/31 01:21:08;;;;;;;8.70;7.80;;;;;;;3.11;100.00;97621.97;5113847;28;20217;-61
2023/01/31 01:23:35;;;;;;;8.80;7.90;;;;;;;3.05;100.00;97617.00;5111344;28;20197;-60
2023/01/31 01:26:01;;;;;;;8.20;7.17;;;;;;;2.93;100.00;97628.91;5112461;28;20209;-60
2023/01/31 01:28:28;;;;;;;8.80;7.77;;;;;;;2.87;100.00;97630.97;5113303;28;20208;-60
2023/01/31 01:30:54;;;;;;;8.57;7.67;;;;;;;2.87;100.00;97639.63;5113515;28;20232;-61
2023/01/31 01:33:22;;;;;;;8.57;7.67;;;;;;;2.78;100.00;97634.00;5113493;28;20197;-61
2023/01/31 01:35:48;;;;;;;8.67;7.77;;;;;;;2.68;100.00;97641.41;5113463;28;20201;-60
2023/01/31 01:38:15;;;;;;;7.90;7.10;;;;;;;2.62;100.00;97628.66;5112954;28;20205;-61
2023/01/31 01:40:41;;;;;;;9.43;8.10;;;;;;;2.57;100.00;97640.22;5112847;27;20197;-61
2023/01/31 01:43:10;;;;;;;8.80;7.80;;;;;;;2.53;100.00;97639.50;5111965;28;20208;-60
2023/01/31 01:45:37;;;;;;;8.97;7.90;;;;;;;2.48;100.00;97631.00;5112142;28;20842;-60
2023/01/31 01:48:07;;;;;;;8.60;7.70;;;;;;;2.42;100.00;97633.91;5113256;28;20754;-62
2023/01/31 01:50:40;;;;;;;8.80;7.87;;;;;;;2.36;100.00;97626.38;5112742;28;20212;-61
2023/01/31 01:53:11;;;;;;;8.60;7.70;;;;;;;2.28;100.00;97623.25;5112888;28;20212;-61
2023/01/31 01:55:41;;;;;;;10.37;8.67;;;;;;;2.18;100.00;97622.81;5112637;28;20192;-60
2023/01/31 01:58:10;;;;;;;9.27;8.33;;;;;;;2.14;100.00;97623.00;5113048;28;20213;-60
2023/01/31 02:00:37;;;;;;;9.30;8.20;;;;;;;2.07;100.00;97625.03;5112681;28;20201;-60
2023/01/31 02:03:06;;;;;;;11.03;9.40;;;;;;;1.95;100.00;97626.41;5112902;28;20527;-61
2023/01/31 02:05:36;;;;;;;10.37;9.10;;;;;;;1.88;100.00;97632.81;5112535;28;20653;-62
2023/01/31 02:08:03;;;;;;;11.33;8.93;;;;;;;1.76;100.00;97630.75;5111122;28;20205;-61
2023/01/31 02:10:32;;;;;;;9.80;8.53;;;;;;;1.77;100.00;97635.03;5112110;28;20697;-61
2023/01/31 02:12:58;;;;;;;10.03;8.60;;;;;;;1.71;100.00;97637.91;5113500;28;20506;-61
2023/01/31 02:15:25;;;;;;;9.40;8.37;;;;;;;1.67;100.00;97640.69;5113388;28;20230;-60
2023/01/31 02:17:53;;;;;;;10.40;9.27;;;;;;;1.63;100.00;97639.97;5112783;28;20211;-61
2023/01/31 02:20:33;;;;;;;11.07;9.43;;;;;;;1.66;100.00;97637.28;5112177;28;20193;-61
2023/01/31 02:23:25;;;;;;;11.57;9.23;;;;;;;1.73;100.00;97638.72;5111682;28;20287;-61
2023/01/31 02:26:19;;;;;;;9.23;8.33;;;;;;;1.82;100.00;97642.66;5111436;28;20197;-62
2023/01/31 02:29:09;;;;;;;11.10;9.77;;;;;;;1.77;100.00;97645.47;5067549;28;20209;-61
2023/01/31 02:31:49;;;;;;;11.07;9.30;;;;;;;1.78;100.00;97641.94;5112258;28;20215;-60
2023/01/31 02:34:21;;;;;;;11.50;10.03;;;;;;;1.82;100.00;97640.91;5112295;28;20218;-62
2023/01/31 02:36:56;;;;;;;11.47;10.10;;;;;;;1.87;100.00;97654.63;5112041;28;20222;-60
2023/01/31 02:39:28;;;;;;;10.73;9.57;;;;;;;1.92;100.00;97655.25;5111765;28;20189;-61
2023/01/31 02:41:57;;;;;;;11.60;10.40;;;;;;;2.00;100.00;97661.00;5111165;27;20216;-60
2023/01/31 02:47:18;;;;;;;12.33;10.30;;;;;;;2.10;100.00;97651.00;5112651;28;20548;-61
2023/01/31 02:49:49;;;;;;;12.83;10.87;;;;;;;2.10;100.00;97644.94;5111999;28;20208;-60
2023/01/31 02:52:20;;;;;;;11.60;10.40;;;;;;;2.09;100.00;97648.47;5111354;28;20204;-60
2023/01/31 02:57:38;;;;;;;11.43;10.17;;;;;;;2.21;100.00;97653.13;5112035;28;20532;-61
2023/01/31 03:00:06;;;;;;;12.30;10.70;;;;;;;2.21;100.00;97650.53;5111875;28;20206;-61
2023/01/31 03:02:33;;;;;;;14.20;11.37;;;;;;;2.29;100.00;97640.59;5111826;28;20488;-61
2023/01/31 03:05:01;;;;;;;13.77;11.17;;;;;;;2.27;100.00;97631.97;5132566;28;20212;-61
2023/01/31 03:07:30;;;;;;;12.20;10.87;;;;;;;2.31;100.00;97638.75;5118952;28;20792;-60
2023/01/31 03:10:05;;;;;;;11.97;10.23;;;;;;;2.33;100.00;97631.72;5127017;28;20208;-63
2023/01/31 03:12:48;;;;;;;13.70;11.40;;;;;;;2.35;100.00;97635.94;5127074;28;20192;-62
2023/01/31 03:18:18;;;;;;;13.53;10.53;;;;;;;2.32;100.00;97623.03;5110891;28;20323;-61
2023/01/31 03:20:50;;;;;;;12.40;11.10;;;;;;;2.29;100.00;97630.16;5111528;28;20207;-61
2023/01/31 03:23:18;;;;;;;12.93;11.43;;;;;;;2.18;100.00;97632.41;5111877;28;20193;-61
2023/01/31 03:25:46;;;;;;;12.67;10.60;;;;;;;2.15;100.00;97637.75;5110961;28;20196;-61
2023/01/31 03:28:16;;;;;;;12.73;10.50;;;;;;;2.09;100.00;97641.47;5110869;28;20651;-62
2023/01/31 03:30:47;;;;;;;11.47;9.73;;;;;;;2.12;100.00;97650.94;5111673;28;20397;-60
2023/01/31 03:33:15;;;;;;;12.33;10.13;;;;;;;2.06;100.00;97644.22;5112423;28;20211;-60
2023/01/31 03:35:44;;;;;;;13.00;10.53;;;;;;;2.02;100.00;97649.66;5111597;28;20215;-61
2023/01/31 03:38:16;;;;;;;10.70;9.60;;;;;;;1.96;100.00;97655.97;5112432;28;20201;-62
2023/01/31 03:40:46;;;;;;;11.17;9.73;;;;;;;1.96;100.00;97666.41;5112278;28;20201;-62
2023/01/31 03:43:19;;;;;;;11.40;9.73;;;;;;;1.87;100.00;97669.41;5111918;28;20197;-60
2023/01/31 03:45:48;;;;;;;10.53;9.43;;;;;;;1.87;100.00;97675.47;5111574;28;20193;-61
2023/01/31 03:48:17;;;;;;;9.80;8.80;;;;;;;1.80;100.00;97678.41;5111898;28;20645;-60
2023/01/31 03:50:47;;;;;;;10.50;9.40;;;;;;;1.73;100.00;97659.56;5115177;28;20252;-61
2023/01/31 03:53:18;;;;;;;10.00;8.90;;;;;;;1.61;100.00;97665.28;5115305;28;20204;-61
2023/01/31 03:55:48;;;;;;;11.00;9.40;;;;;;;1.46;100.00;97665.91;5114548;28;20598;-62
2023/01/31 03:58:18;;;;;;;9.63;8.63;;;;;;;1.48;100.00;97671.91;5115354;28;20215;-61
2023/01/31 04:00:46;;;;;;;8.80;7.73;;;;;;;1.42;100.00;97666.94;5115185;28;20208;-61
2023/01/31 04:03:16;;;;;;;9.20;7.77;;;;;;;1.43;100.00;97668.63;5115381;28;20215;-62
2023/01/31 04:05:44;;;;;;;8.47;7.57;;;;;;;1.27;100.00;97678.00;5113128;28;20215;-61
2023/01/31 04:08:10;;;;;;;8.83;7.87;;;;;;;1.22;100.00;97675.56;5113036;28;20211;-61
2023/01/31 04:10:38;;;;;;;7.37;6.67;;;;;;;1.22;100.00;97672.09;5114373;28;20223;-60
2023/01/31 04:13:05;;;;;;;7.60;6.70;;;;;;;1.22;100.00;97669.50;5114811;28;20569;-61
2023/01/31 04:15:31;;;;;;;7.27;6.53;;;;;;;1.23;100.00;97668.59;5114903;28;20204;-61
2023/01/31 04:17:58;;;;;;;8.10;7.00;;;;;;;1.15;100.00;97674.09;5114124;28;20225;-61
2023/01/31 04:20:24;;;;;;;8.10;7.00;;;;;;;1.13;100.00;97680.31;5114434;28;20207;-61
2023/01/31 04:22:51;;;;;;;8.63;7.03;;;;;;;1.12;100.00;97681.19;5114667;28;20196;-61
2023/01/31 04:25:17;;;;;;;7.97;6.67;;;;;;;1.22;100.00;97690.34;5114358;28;20208;-61
2023/01/31 04:27:45;;;;;;;6.93;6.23;;;;;;;1.23;100.00;97681.63;5112594;28;20216;-61
2023/01/31 04:30:12;;;;;;;8.03;6.80;;;;;;;1.24;100.00;97691.16;5114578;28;20618;-61
2023/01/31 04:32:39;;;;;;;7.10;6.40;;;;;;;1.18;100.00;97687.00;5115165;28;20223;-62
2023/01/31 04:35:06;;;;;;;7.87;6.90;;;;;;;1.10;100.00;97675.22;5115083;28;20209;-61
2023/01/31 04:37:32;;;;;;;8.10;6.83;;;;;;;1.11;100.00;97672.53;5115300;28;20232;-61
2023/01/31 04:39:59;;;;;;;7.63;6.53;;;;;;;1.16;100.00;97680.19;5114654;28;20200;-61
2023/01/31 04:42:25;;;;;;;8.20;6.93;;;;;;;1.13;100.00;97675.94;5115905;28;20212;-61
2023/01/31 04:44:53;;;;;;;7.67;6.87;;;;;;;1.15;100.00;97675.88;5116307;28;20213;-61
2023/01/31 04:47:20;;;;;;;7.10;6.40;;;;;;;1.12;100.00;97676.84;5116509;28;20208;-60
2023/01/31 04:49:46;;;;;;;6.83;6.23;;;;;;;1.23;100.00;97679.88;5116467;28;20209;-61
2023/01/31 04:52:12;;;;;;;8.27;7.00;;;;;;;1.25;100.00;97679.78;5116556;28;20234;-62
2023/01/31 04:54:40;;;;;;;8.40;7.00;;;;;;;1.22;100.00;97679.91;5116809;28;20219;-61
2023/01/31 04:57:07;;;;;;;7.50;6.80;;;;;;;1.26;100.00;97677.16;5116092;28;20199;-62
2023/01/31 04:59:33;;;;;;;8.50;7.20;;;;;;;1.21;100.00;97673.84;5116234;28;20207;-62
2023/01/31 05:02:01;;;;;;;7.33;6.63;;;;;;;1.25;100.00;97680.66;5115210;28;20312;-62
2023/01/31 05:04:27;;;;;;;7.40;6.60;;;;;;;1.27;100.00;97675.38;5115782;28;20518;-61
2023/01/31 05:06:54;;;;;;;7.93;6.77;;;;;;;1.35;100.00;97692.41;5114820;28;20207;-61
2023/01/31 05:09:21;;;;;;;8.47;7.60;;;;;;;1.45;100.00;97696.31;5112269;28;20214;-63
2023/01/31 05:11:48;;;;;;;10.33;7.93;;;;;;;1.54;100.00;97697.72;5113513;28;20328;-61
2023/01/31 05:14:14;;;;;;;9.07;7.40;;;;;;;1.56;100.00;97703.72;5113548;28;20299;-61
2023/01/31 05:16:42;;;;;;;9.67;7.40;;;;;;;1.59;100.00;97707.97;5113230;28;20212;-61
2023/01/31 05:19:10;;;;;;;8.30;7.30;;;;;;;1.63;100.00;97712.97;5113715;28;20232;-60
2023/01/31 05:21:53;;;;;;;10.80;8.03;;;;;;;1.64;100.00;97714.69;5114374;28;20213;-61
2023/01/31 05:24:20;;;;;;;8.70;7.80;;;;;;;1.66;100.00;97718.09;5113479;28;20200;-61
2023/01/31 05:26:49;;;;;;;8.17;7.37;;;;;;;1.71;100.00;97723.94;5114160;28;20203;-62
2023/01/31 05:29:15;;;;;;;8.80;7.40;;;;;;;1.83;100.00;97725.22;5113642;28;20201;-60
2023/01/31 05:31:43;;;;;;;8.83;7.93;;;;;;;1.81;100.00;97717.44;5114824;28;20221;-61
2023/01/31 05:34:14;;;;;;;8.90;8.00;;;;;;;1.77;100.00;97723.69;5111945;28;20295;-62
2023/01/31 05:36:41;;;;;;;10.13;7.53;;;;;;;1.81;100.00;97721.81;5111009;28;20261;-61
2023/01/31 05:39:08;;;;;;;8.97;8.07;;;;;;;1.84;100.00;97719.09;5112960;28;20204;-63
2023/01/31 05:41:34;;;;;;;8.93;7.67;;;;;;;1.82;100.00;97719.16;5112965;27;20201;-61
2023/01/31 05:44:01;;;;;;;8.63;7.80;;;;;;;1.81;100.00;97712.22;5112622;28;20703;-61
2023/01/31 05:46:27;;;;;;;8.63;7.73;;;;;;;1.81;100.00;97706.16;5112829;28;20193;-62
2023/01/31 05:48:54;;;;;;;10.37;7.93;;;;;;;1.85;100.00;97708.59;5111972;28;20301;-62
2023/01/31 05:51:23;;;;;;;9.93;8.23;;;;;;;1.97;100.00;97720.28;5112232;28;20220;-61
2023/01/31 05:53:50;;;;;;;9.60;8.13;;;;;;;1.99;100.00;97716.69;5112035;28;20212;-61
2023/01/31 05:56:17;;;;;;;8.97;8.07;;;;;;;1.99;100.00;97721.91;5112344;28;20205;-61
2023/01/31 05:58:47;;;;;;;8.93;8.03;;;;;;;2.02;100.00;97714.88;5112496;28;20215;-61
2023/01/31 06:01:13;;;;;;;9.87;8.37;;;;;;;2.07;100.00;97718.97;5112325;28;20244;-61
2023/01/31 06:03:40;;;;;;;10.23;9.03;;;;;;;2.09;100.00;97724.13;5111631;28;20226;-61
2023/01/31 06:06:06;;;;;;;9.47;8.43;;;;;;;2.05;100.00;97725.16;5112681;28;20546;-61
2023/01/31 06:08:34;;;;;;;9.93;8.83;;;;;;;2.07;100.00;97733.78;5112766;28;20193;-61
2023/01/31 06:11:03;;;;;;;11.50;8.90;;;;;;;2.11;100.00;97736.19;5111199;28;20224;-60
2023/01/31 06:13:30;;;;;;;10.80;8.47;;;;;;;2.09;100.00;97742.41;5112241;28;20236;-60
2023/01/31 06:15:56;;;;;;;11.47;8.30;;;;;;;2.02;100.00;97740.97;5112546;28;20204;-62
2023/01/31 06:18:23;;;;;;;10.73;8.30;;;;;;;2.11;100.00;97741.41;5112718;28;20209;-61
2023/01/31 06:20:50;;;;;;;10.33;9.00;;;;;;;2.13;100.00;97738.72;5111600;28;20520;-61
2023/01/31 06:23:16;;;;;;;10.10;8.30;;;;;;;2.17;100.00;97735.91;5111905;28;20205;-62
2023/01/31 06:25:44;;;;;;;9.83;8.83;;;;;;;2.14;100.00;97736.06;5111201;28;20223;-63
2023/01/31 06:28:11;;;;;;;9.60;8.60;;;;;;;2.13;100.00;97734.34;5111583;28;20201;-62
2023/01/31 06:30:37;;;;;;;10.33;8.93;;;;;;;2.05;100.00;97730.38;5109916;28;20215;-61
2023/01/31 06:33:04;;;;;;;11.20;9.57;;;;;;;2.11;100.00;97732.72;5109785;28;20212;-61
2023/01/31 06:35:32;;;;;;;10.30;9.17;;;;;;;2.13;100.00;97733.50;5110745;28;20209;-61
2023/01/31 06:37:59;;;;;;;9.80;8.80;;;;;;;2.15;100.00;97736.91;5111981;28;20262;-60
2023/01/31 06:40:25;;;;;;;11.20;9.20;;;;;;;2.11;100.00;97733.59;5111868;27;21371;-61
2023/01/31 06:42:53;;;;;;;10.80;9.17;;;;;;;2.13;100.00;97734.34;5112914;28;20222;-61
2023/01/31 06:45:19;;;;;;;10.87;9.70;;;;;;;2.19;100.00;97735.88;5113042;28;20220;-61
2023/01/31 06:47:46;;;;;;;11.93;9.57;;;;;;;2.16;100.00;97738.63;5113021;28;20219;-62
2023/01/31 06:50:13;;;;;;;12.77;9.47;;;;;;;2.16;100.00;97734.22;5112022;28;20543;-61
2023/01/31 06:52:40;;;;;;;11.73;9.90;;;;;;;2.17;100.00;97745.50;5112001;28;20231;-61
2023/01/31 06:55:08;;;;;;;10.00;9.00;;;;;;;2.20;100.00;97742.75;5111718;28;20205;-60
2023/01/31 06:57:35;;;;;;;12.53;9.70;;;;;;;2.18;100.00;97745.47;5112413;28;20209;-60
2023/01/31 07:00:04;;;;;;;10.50;8.87;;;;;;;2.14;100.00;97748.25;5112560;28;20289;-61
2023/01/31 07:02:30;;;;;;;10.87;9.43;;;;;;;2.16;100.00;97749.06;5112244;28;20221;-60
2023/01/31 07:04:57;;;;;;;9.77;8.67;;;;;;;2.14;100.00;97750.88;5111923;28;20530;-61
2023/01/31 07:07:23;;;;;;;10.37;9.27;;;;;;;2.13;100.00;97751.75;5093864;28;20556;-62
2023/01/31 07:09:50;;;;;;;11.53;9.87;;;;;;;2.13;100.00;97752.63;5111456;28;20208;-60
2023/01/31 07:12:16;;;;;;;11.27;9.23;;;;;;;2.13;100.00;97756.97;5111996;28;20232;-61
2023/01/31 07:14:43;;;;;;;10.47;9.17;;;;;;;2.16;100.00;97759.50;5111440;28;20224;-62
2023/01/31 07:17:11;;;;;;;10.50;9.33;;;;;;;2.16;100.00;97760.31;5111477;28;20216;-60
2023/01/31 07:19:37;;;;;;;11.13;9.03;;;;;;;2.17;100.00;97766.38;5111534;28;20205;-60
2023/01/31 07:22:04;;;;;;;11.23;8.87;;;;;;;2.22;100.00;97767.91;5111377;28;20291;-60
2023/01/31 07:24:30;;;;;;;10.07;9.00;;;;;;;2.22;100.00;97760.06;5109918;28;20865;-61
2023/01/31 07:26:57;;;;;;;10.20;8.63;;;;;;;2.21;100.00;97767.97;5110990;28;20200;-62
2023/01/31 07:29:23;;;;;;;11.03;8.80;;;;;;;2.26;100.00;97772.09;5110747;28;20614;-62
2023/01/31 07:31:49;;;;;;;11.53;9.63;;;;;;;2.21;100.00;97763.59;5110890;28;20243;-60
2023/01/31 07:34:20;;;;;;;9.83;8.70;;;;;;;2.20;100.00;97767.09;5111014;28;20207;-62
2023/01/31 07:36:46;;;;;;;10.93;8.83;;;;;;;2.18;100.00;97768.09;5111050;28;20739;-61
2023/01/31 07:39:13;;;;;;;9.90;8.90;;;;;;;2.13;100.00;97767.41;5110328;28;21347;-61
2023/01/31 07:41:39;;;;;;;10.87;9.17;;;;;;;2.12;100.00;97768.34;5111054;28;20524;-61
2023/01/31 07:44:07;;;;;;;8.97;8.13;;;;;;;2.11;100.00;97775.34;5111132;28;20207;-60
2023/01/31 07:46:34;;;;;;;12.73;8.93;;;;;;;2.19;100.00;97781.09;5110768;28;20316;-61
2023/01/31 07:49:00;;;;;;;10.93;9.40;;;;;;;2.26;100.00;97781.66;5110873;28;20201;-61
2023/01/31 07:51:28;;;;;;;12.70;10.73;;;;;;;2.29;100.00;97778.94;5111108;28;20232;-62
2023/01/31 07:53:54;;;;;;;13.80;12.03;;;;;;;2.36;100.00;97773.38;5111117;28;20208;-61
2023/01/31 07:56:21;;;;;;;11.47;9.03;;;;;;;2.35;100.00;97773.44;5110742;28;20208;-60
2023/01/31 07:58:49;;;;;;;11.87;10.57;;;;;;;2.37;100.00;97771.63;5111049;28;20214;-62
2023/01/31 08:04:01;;;;;;;13.80;10.90;;;;;;;2.43;100.00;97773.97;5110977;28;20204;-61
2023/01/31 08:06:30;;;;;;;15.23;10.30;;;;;;;2.51;100.00;97777.09;5111222;28;20209;-62
2023/01/31 08:08:57;;;;;;;11.07;9.83;;;;;;;2.59;100.00;97769.75;5110449;28;20648;-59
2023/01/31 08:11:24;;;;;;;9.63;8.63;;;;;;;2.58;100.00;97762.03;5110538;28;20525;-62
2023/01/31 08:13:51;;;;;;;9.97;8.67;;;;;;;2.69;100.00;97768.47;5110801;28;20205;-62
2023/01/31 08:16:17;;;;;;;10.00;9.00;;;;;;;2.73;100.00;97777.84;5110682;28;20295;-62
2023/01/31 08:18:44;;;;;;;10.30;9.10;;;;;;;2.77;100.00;97776.78;5110874;28;20663;-61
2023/01/31 08:21:12;;;;;;;10.20;8.67;;;;;;;2.75;100.00;97765.59;5110945;28;20197;-61
2023/01/31 08:23:40;;;;;;;10.13;9.03;;;;;;;2.76;100.00;97767.28;5111119;28;20209;-60
2023/01/31 08:26:09;;;;;;;11.07;9.67;;;;;;;2.79;100.00;97772.38;5110270;28;20216;-60
2023/01/31 08:28:36;;;;;;;11.43;8.80;;;;;;;2.71;100.00;97766.63;5114408;28;20224;-62
2023/01/31 08:31:02;;;;;;;9.37;8.37;;;;;;;2.85;100.00;97758.19;5122385;28;20656;-61
2023/01/31 08:33:29;;;;;;;10.43;9.33;;;;;;;2.85;100.00;97750.34;5122505;28;20216;-60
2023/01/31 08:35:55;;;;;;;10.57;9.00;;;;;;;2.91;100.00;97756.13;5126104;28;20211;-62
2023/01/31 08:38:22;;;;;;;11.47;9.50;;;;;;;3.08;100.00;97762.38;5118725;28;20208;-62
2023/01/31 08:40:50;;;;;;;11.30;10.00;;;;;;;3.10;100.00;97761.38;5114075;27;20209;-61
2023/01/31 08:43:16;;;;;;;11.20;9.77;;;;;;;3.14;100.00;97751.63;5113925;28;20209;-61
2023/01/31 08:45:43;;;;;;;11.10;9.90;;;;;;;3.24;100.00;97742.44;5114277;28;20553;-62
2023/01/31 08:48:09;;;;;;;11.67;10.43;;;;;;;3.34;100.00;97736.72;5114050;28;20219;-62
2023/01/31 08:50:36;;;;;;;14.87;12.73;;;;;;;3.48;100.00;97738.66;5113920;28;20209;-62
2023/01/31 08:53:04;;;;;;;14.80;11.00;;;;;;;3.55;100.00;97747.06;5114173;28;20568;-61
2023/01/31 08:55:31;;;;;;;13.47;10.33;;;;;;;3.59;100.00;97746.84;5113701;28;20204;-61
2023/01/31 08:58:00;;;;;;;10.97;9.87;;;;;;;3.64;100.00;97750.09;5114319;28;20208;-60
2023/01/31 09:00:27;;;;;;;11.20;9.80;;;;;;;3.72;100.00;97753.19;5114039;28;20200;-61
2023/01/31 09:02:54;;;;;;;11.53;10.10;;;;;;;3.76;100.00;97757.34;5113499;28;20692;-60
2023/01/31 09:05:21;;;;;;;12.70;10.07;;;;;;;3.86;100.00;97755.16;5114026;28;20216;-62
2023/01/31 09:07:48;;;;;;;14.63;11.87;;;;;;;3.91;100.00;97751.38;5114200;28;20202;-61
2023/01/31 09:10:14;;;;;;;12.33;10.93;;;;;;;3.99;100.00;97753.63;5113491;28;20197;-60
2023/01/31 09:12:40;;;;;;;12.47;11.17;;;;;;;4.21;100.00;97759.50;5113599;28;20591;-61
2023/01/31 09:15:09;;;;;;;13.43;11.47;;;;;;;4.44;100.00;97748.69;5113545;28;20212;-60
2023/01/31 09:17:36;;;;;;;12.30;10.43;;;;;;;4.99;98.27;97749.25;5113988;28;20320;-61
2023/01/31 09:20:05;;;;;;;13.10;9.73;;;;;;;5.43;92.80;97754.72;5113609;28;20204;-60
2023/01/31 09:22:32;;;;;;;9.97;8.97;;;;;;;6.42;89.73;97751.69;5113351;28;20638;-62
2023/01/31 09:24:58;;;;;;;11.40;9.80;;;;;;;7.03;84.91;97750.63;5113262;28;20288;-61
2023/01/31 09:27:25;;;;;;;10.70;9.60;;;;;;;7.49;82.69;97746.81;5113361;28;20224;-62
2023/01/31 09:29:51;;;;;;;22.30;9.50;;;;;;;7.63;81.41;97752.06;5113518;28;20209;-60
2023/01/31 09:32:20;;;;;;;11.53;9.63;;;;;;;8.18;77.44;97746.69;5113517;28;20227;-60
2023/01/31 09:34:47;;;;;;;10.57;9.23;;;;;;;8.66;75.85;97752.28;5113442;28;20518;-62
2023/01/31 09:37:14;;;;;;;12.93;9.23;;;;;;;8.25;73.54;97739.22;5113950;28;20601;-62
2023/01/31 09:39:40;;;;;;;10.07;8.43;;;;;;;7.54;76.92;97728.13;5113399;28;20202;-61
2023/01/31 09:42:15;;;;;;;18.10;10.30;;;;;;;7.57;77.30;97727.91;5113287;28;20640;-61
2023/01/31 09:44:44;;;;;;;12.53;10.77;;;;;;;7.38;77.32;97747.50;5113633;28;20188;-61
2023/01/31 09:47:16;;;;;;;14.07;11.33;;;;;;;7.49;80.49;97752.09;5112582;28;20342;-61
2023/01/31 09:49:50;;;;;;;13.23;11.83;;;;;;;7.00;82.01;97752.53;5114105;28;20224;-62
2023/01/31 09:52:17;;;;;;;13.50;12.00;;;;;;;7.47;80.63;97749.53;5113024;28;20217;-62
2023/01/31 09:54:44;;;;;;;15.30;11.83;;;;;;;8.18;79.35;97749.34;5112789;28;20641;-61
2023/01/31 09:57:20;;;;;;;12.07;10.77;;;;;;;8.68;77.22;97761.78;5113211;28;20551;-61
2023/01/31 09:59:49;;;;;;;12.80;11.23;;;;;;;8.38;74.02;97758.56;5112882;28;20196;-62
2023/01/31 10:02:31;;;;;;;11.97;10.80;;;;;;;8.90;71.71;97751.44;5112596;28;20252;-62
2023/01/31 10:05:14;;;;;;;13.23;10.70;;;;;;;9.50;71.76;97758.66;5112918;28;20209;-62
2023/01/31 10:07:45;;;;;;;10.90;9.73;;;;;;;10.48;68.52;97761.16;5113256;28;20197;-62
2023/01/31 10:10:20;;;;;;;10.13;9.13;;;;;;;11.06;64.56;97761.97;5112635;28;20197;-62
2023/01/31 10:12:49;;;;;;;10.40;9.30;;;;;;;12.04;60.41;97755.94;5113476;28;20208;-62
2023/01/31 10:15:19;;;;;;;9.27;8.40;;;;;;;12.69;58.03;97753.94;5112604;28;20205;-62
2023/01/31 10:17:48;;;;;;;10.17;9.17;;;;;;;12.26;55.09;97750.53;5112924;28;20228;-62
2023/01/31 10:20:20;;;;;;;9.73;8.73;;;;;;;12.50;55.34;97753.81;5112782;28;20312;-61
2023/01/31 10:22:52;;;;;;;10.73;9.73;;;;;;;11.57;57.23;97757.91;5112459;28;20280;-62
2023/01/31 10:25:25;;;;;;;8.67;7.87;;;;;;;10.80;60.10;97759.56;5111857;28;20194;-62
2023/01/31 10:27:56;;;;;;;9.63;8.63;;;;;;;9.80;64.15;97756.47;5111891;28;20197;-62
2023/01/31 10:30:25;;;;;;;9.00;8.20;;;;;;;9.20;66.06;97752.91;5112069;28;20894;-61
2023/01/31 10:32:56;;;;;;;10.93;9.83;;;;;;;8.79;69.16;97750.50;5112249;28;20225;-62
2023/01/31 10:35:29;;;;;;;10.80;9.80;;;;;;;8.96;68.87;97745.75;5111876;28;20197;-61
2023/01/31 10:38:00;;;;;;;10.50;9.47;;;;;;;8.95;68.90;97744.06;5112461;28;20208;-62
2023/01/31 10:40:30;;;;;;;10.23;9.23;;;;;;;9.46;65.32;97739.53;5111748;28;20198;-62
2023/01/31 10:43:00;;;;;;;11.30;10.17;;;;;;;9.52;67.80;97738.28;5112209;28;20197;-62
2023/01/31 10:45:32;;;;;;;10.27;9.37;;;;;;;9.51;68.12;97731.31;5112117;28;20216;-62
2023/01/31 10:48:11;;;;;;;10.93;9.53;;;;;;;10.17;67.00;97728.19;5112013;28;20208;-62
2023/01/31 10:50:47;;;;;;;9.70;8.70;;;;;;;10.46;63.38;97731.31;5111888;28;20212;-62
2023/01/31 10:53:26;;;;;;;9.37;8.47;;;;;;;10.58;61.24;97719.81;5111530;28;20209;-61
2023/01/31 10:55:59;;;;;;;9.77;8.80;;;;;;;10.58;60.31;97722.47;5111817;28;20201;-60
2023/01/31 10:58:26;;;;;;;9.13;7.83;;;;;;;10.65;59.25;97715.75;5111415;28;20193;-61
2023/01/31 11:00:53;;;;;;;9.13;8.27;;;;;;;11.47;57.21;97709.28;5111603;28;20244;-62
2023/01/31 11:03:19;;;;;;;9.07;8.18;;;;;;;12.07;56.08;97711.44;5111605;28;20197;-62
2023/01/31 11:05:50;;;;;;;8.25;7.45;;;;;;;12.62;53.08;97699.72;5111753;28;20538;-62
2023/01/31 11:08:36;;;;;;;8.90;8.10;;;;;;;13.12;51.85;97702.53;5111378;28;21336;-62
2023/01/31 11:11:08;;;;;;;9.30;8.40;;;;;;;12.75;53.81;97695.03;5111076;28;20200;-62
2023/01/31 11:13:34;;;;;;;8.85;7.75;;;;;;;13.71;50.89;97697.28;5111360;28;20217;-62
2023/01/31 11:16:02;;;;;;;10.35;9.40;;;;;;;12.62;53.33;97694.41;5111292;28;20212;-62
2023/01/31 11:18:30;;;;;;;10.25;9.30;;;;;;;11.83;55.44;97685.13;5111365;28;20205;-63
2023/01/31 11:20:58;;;;;;;10.25;9.25;;;;;;;11.37;56.73;97681.84;5111319;28;20207;-63
2023/01/31 11:23:28;;;;;;;10.45;8.85;;;;;;;10.95;58.89;97691.34;5111340;28;20201;-61
2023/01/31 11:25:55;;;;;;;9.15;8.25;;;;;;;10.62;58.06;97692.19;5111027;28;20204;-62
2023/01/31 11:28:23;;;;;;;10.53;9.50;;;;;;;9.97;60.60;97676.81;5111232;28;20205;-60
2023/01/31 11:30:51;;;;;;;9.90;8.80;;;;;;;10.11;60.25;97682.84;5110819;28;20208;-61
2023/01/31 11:33:37;;;;;;;10.53;9.33;;;;;;;10.07;60.87;97676.09;5111352;28;20555;-62
2023/01/31 11:36:10;;;;;;;10.70;9.67;;;;;;;9.48;63.55;97666.38;5111489;28;20201;-62
2023/01/31 11:38:36;;;;;;;10.03;9.03;;;;;;;9.26;64.19;97668.00;5111230;28;20200;-61
2023/01/31 11:41:29;;;;;;;9.70;8.83;;;;;;;8.65;65.64;97667.06;5110669;28;20213;-61
2023/01/31 11:44:13;;;;;;;10.63;9.57;;;;;;;8.48;66.78;97660.31;5111191;28;20558;-61
2023/01/31 11:46:52;;;;;;;10.80;9.70;;;;;;;8.40;68.75;97664.41;5111203;28;20604;-60